DATOS DEL TIEMPO

HOY
Time Temp. Dewp. Hum. Bar.
00:00 2.8 1.9 94 984.3
00:20 2.7 1.4 91 984.7
00:30 2.6 1.4 92 984.4
00:41 2.6 1.4 92 984.7
00:50 2.3 1 91 985.5
01:00 2 0.7 91 985.5
01:11 1.8 0.6 92 985.7
01:21 1.7 0.5 92 985.8
01:31 1.7 0.7 93 985.7
01:41 1.6 0.4 92 986.5
01:56 1.3 0.7 96 987.1
02:06 1.2 0.5 95 986.8
02:16 1.3 0.4 94 986.9
02:41 1.6 0.1 90 986.9
02:51 1.6 0 89 986.5
03:02 1.7 0.2 90 986.4
03:12 1.7 0.2 90 986.3
03:22 1.7 -0.1 88 986.2
03:32 1.7 -0.1 88 986.6
03:42 1.8 0 88 986.6
03:57 1.8 0 88 986.4
04:07 1.8 0 88 986.9
04:18 1.8 0 88 987.6
04:27 1.9 0.1 88 987.7
04:37 1.9 0 87 987.8
04:48 1.9 -0.2 86 987.9
04:58 1.8 -0.5 84 987.9
05:08 1.8 -0.5 84 987.8
05:17 1.8 -0.3 86 988
05:28 1.9 0 87 988.2
05:38 1.9 0.1 88 988.2
05:48 1.9 0.1 88 988.3
05:59 2 0.1 87 988.4
06:08 2 0.1 87 988.7
06:18 2 -0.1 86 988.9
06:28 2 -0.1 86 989
06:39 2 -0.2 85 989.2
06:49 1.9 -0.2 86 989.5
06:59 1.9 -0.3 85 989.8
07:09 1.9 -0.2 86 990.1
07:19 1.9 -0.3 85 990.4
07:29 1.9 -0.3 85 990.5
07:44 1.9 -0.2 86 991.1
07:54 1.9 -0.2 86 991.3
08:20 1.9 0 87 992.2
08:30 2 -0.1 86 992.7
08:45 2 -0.1 86 993
08:55 2 -0.1 86 993.5
09:05 2 -0.1 86 993.7
09:15 2.1 0 86 994.2
09:41 2.1 0 86 994.7
09:50 2.1 0 86 995
10:05 2.2 0.1 86 995.6
10:16 2.2 0.1 86 995.9
10:26 2.3 0.2 86 996.1
10:36 2.3 0.2 86 996.3
10:46 2.5 0.4 86 996.4
10:56 2.6 0.5 86 996.3
11:06 2.9 0.6 85 996.8
11:16 3 0.7 85 997
11:27 3.1 1 86 996.9
11:37 3.3 1.2 86 997.1
11:46 3.5 1.2 85 997
11:57 3.7 1.4 85 997.2
12:07 3.9 1.6 85 997.5
12:17 4 1.9 86 997.6
12:27 4.2 1.9 85 997.7
12:37 4.3 2.2 86 998
12:47 4.5 2 84 998.3
12:57 4.5 2 84 998.5
13:07 4.6 2.1 84 998.6
13:23 4.8 2.2 83 999
13:33 4.8 1.8 81 999.2
13:43 4.9 2.1 82 999.4
13:53 4.9 1.9 81 999.7
14:03 5 2 81 999.7
14:13 5 1.8 80 1000.1
14:23 5 1.8 80 1000.5
14:33 5 1.8 80 1000.8
14:43 4.9 1.7 80 1001
14:53 4.8 1.6 80 1001.2
15:04 4.8 1.1 77 1001.5
15:14 4.7 1.2 78 1001.9
15:23 4.7 1.2 78 1002.1
15:34 4.5 1 78 1002.5
15:44 4.4 0.7 77 1002.8
16:10 4.2 0.5 77 1003.3
16:20 4.1 0.4 77 1003.6
16:29 4 0.2 76 1003.7
16:39 3.9 0.2 77 1004.1
16:50 3.9 0.2 77 1004.3
17:00 4 0.2 76 1004.8
17:15 4.2 -0.2 73 1005
17:25 4.4 -0.2 72 1005.5
17:36 4.5 -0.3 71 1005.5
17:49 4.7 -0.4 69 1005.7
17:59 4.7 -0.3 70 1006.2
18:03 4.7 -0.3 70 1006.4
18:15 4.7 -0.3 70 1006.9
18:24 4.7 -0.4 69 1007
18:35 4.8 -0.4 69 1007.1
18:45 4.9 -0.3 69 1007.5
18:55 5.1 -0.3 68 1007.6
19:20 5.1 0.7 73 1008.3
19:34 5.1 0.9 74 1008.6
19:45 5.1 1 75 1008.7
19:54 5.1 1.2 76 1008.9
20:10 4.9 1 76 1008.9
20:19 4.9 1.2 77 1009
20:29 4.9 1.2 77 1009
20:39 4.7 0.8 76 1009.1
20:50 4.4 0.7 77 1009.3
21:05 4.1 0.6 78 1009.6
21:14 3.9 0.4 78 1009.8
21:25 3.7 0.4 79 1010
21:35 3.6 0.3 79 1010.1

ESTADÍSTICA DEL DÍA

2019-12-14
TEMPERATURA
NORMAL
3.2
ALTO
5.1
18:55
BAJA
1.2
02:06
PRESIÓN
NORMAL
996.3
ALTO
1010.1
21:35
BAJA
984.3
00:00
PUNTO DE ROCÍO
NORMAL
0.5
ALTO
2.2
12:37
BAJA
-0.5
04:58
HUMEDAD
NORMAL
83
ALTO
96
01:56
BAJA
68
18:55
TEMPERATURA (°C)
BAJA
1.2
ALTO
5.1
NORMAL
3.2
PRESIÓN (hpa)
BAJA
984.3
ALTO
1010.1
NORMAL
996.3
DEVICE